Montgomery, NY

7:10 PM EDT en Julio 02, 2015 (GMT -0400)
Engineering & Surveying Properties | | Change Station
CLOSE
Current Station
Estación meteorológica personal
Location: Montgomery, NY
Altura: 387 ft
Estaciones meteorológicas cercanas

Alt 387 ft 41.53 °N, 74.24 °W | Updated 5 seconds ago

Clear
Despejado
77.9 ° F
Sensación térmica 79 ° F
N
1.0
Viento Variable Viento desde SSO
Gusts 3.0 mph

Hoy
Alta -- | Baja -- ° F
--% Posibilidad de precipitaciones
Ayer
Alta -- | Baja -- ° F
Precip. -- pul
5:27 AM 8:34 PM
Luna llena, 99% visible
Presión 29.86 pul
Visibilidad 10.0 Millas
Nubes Despejado
Índice de calor 79 ° F
Punto de rocío 61 ° F
Humedad 57%
Precipitaciones 0.00 pul
Espesor de la nieve No disponible.
UV 1 de una escala de 12
Polen 4.70 de una escala de 12
Calidad del aire No disponible.
Flu Activity No disponible.
METAR KMGJ 022254Z AUTO 31003KT 10SM CLR 23/17 A2987 RMK AO2 SLP112 T02330172 TSNO

More Conditions Fewer Conditions

Presión 29.86 pul
Visibilidad 10.0 Millas
Nubes Despejado
Índice de calor 79 ° F
Punto de rocío 61 ° F
Humedad 57%
Precipitaciones 0.00 pul
Espesor de la nieve No disponible.
UV 1 de una escala de 12
Polen 4.70 de una escala de 12
Calidad del aire No disponible.
Flu Activity No disponible.
METAR KMGJ 022254Z AUTO 31003KT 10SM CLR 23/17 A2987 RMK AO2 SLP112 T02330172 TSNO

More Conditions Fewer Conditions

10-Day Weather Forecast

×

Almanac

Astronomía

Jul. 02, 2015 Salida Puesta
Hora real
Crepúsculo civil
Crepúsculo náutico
Crepúsculo astronómico
Luna
Horas de luz
Horas de luz
Tomorrow will be .
, % of the Moon is Illuminated

Extremos de hoy

Máximos del estado Bajos del estado

Community

WunderPhotos

Upload Photos

1,834,564 ¡fotos cargadas!

WunderBlogs® & News

Nearby

Calidad del aire

  Calidad del aire Índice AQ Contaminante
Not available.

Grosos de nieve

Estación Profundido Altura

Actividad de terremotos

Ciudad Distance Mag. Tiempo y dato
Magnitud mínima muestra es 2,5.

Temperaturas de aguas costeras

Lugar Temperatura

Stations

Estaciones meteorológicas cercanas

Ubicación de la estación Temp. Vientos helados Punto de rocío Humedad Viento Precip. Alt Actualizado Tipo